createdAt,value
2018-02-25T00:00:34.786Z,6.1
2018-02-25T00:01:34.677Z,6.1
2018-02-25T00:02:34.734Z,10.5
2018-02-25T00:03:34.680Z,10.5
2018-02-25T00:05:34.981Z,7.5
2018-02-25T00:06:34.718Z,7.5
2018-02-25T00:07:34.692Z,3.3
2018-02-25T00:08:34.789Z,3.3
2018-02-25T00:09:34.826Z,3.3
2018-02-25T00:10:34.998Z,5.8
2018-02-25T00:11:34.678Z,5.8
2018-02-25T00:12:34.710Z,5.5
2018-02-25T00:13:34.956Z,5.5
2018-02-25T00:14:34.719Z,5.5
2018-02-25T00:15:34.702Z,5.8
2018-02-25T00:16:34.712Z,5.8
2018-02-25T00:17:34.688Z,8.3
2018-02-25T00:18:34.750Z,8.3
2018-02-25T00:19:35.010Z,8.3
2018-02-25T00:20:34.735Z,7.5
2018-02-25T00:21:34.991Z,7.5
2018-02-25T00:22:34.717Z,7.5
2018-02-25T00:23:34.958Z,5.0
2018-02-25T00:24:35.031Z,5.0
2018-02-25T00:25:34.756Z,8.0
2018-02-25T00:26:34.738Z,8.0
2018-02-25T00:27:34.960Z,8.0
2018-02-25T00:28:34.721Z,4.7
2018-02-25T00:29:34.742Z,4.7
2018-02-25T00:30:35.008Z,6.3
2018-02-25T00:31:35.023Z,6.3
2018-02-25T00:32:35.023Z,6.3
2018-02-25T00:33:34.764Z,7.2
2018-02-25T00:34:35.046Z,7.2
2018-02-25T00:35:34.756Z,9.1
2018-02-25T00:36:34.771Z,9.1
2018-02-25T00:37:34.760Z,9.1
2018-02-25T00:38:34.754Z,6.6
2018-02-25T00:39:34.776Z,6.6
2018-02-25T00:40:35.019Z,6.6
2018-02-25T00:41:34.767Z,6.6
2018-02-25T00:42:34.800Z,6.6
2018-02-25T00:43:35.035Z,4.4
2018-02-25T00:44:34.807Z,4.4
2018-02-25T00:45:34.778Z,5.5
2018-02-25T00:46:34.797Z,5.5
2018-02-25T00:47:34.877Z,5.5
2018-02-25T00:48:34.849Z,7.2
2018-02-25T00:49:34.773Z,7.2
2018-02-25T00:50:34.760Z,7.2
2018-02-25T00:51:34.789Z,6.1
2018-02-25T00:52:34.758Z,6.1
2018-02-25T00:53:34.816Z,1.9
2018-02-25T00:54:35.062Z,1.9
2018-02-25T00:55:34.802Z,1.9
2018-02-25T00:56:34.804Z,5.5
2018-02-25T00:57:34.820Z,5.5
2018-02-25T00:58:34.823Z,3.8
2018-02-25T00:59:35.065Z,3.8
2018-02-25T01:00:35.098Z,3.8
2018-02-25T01:01:34.778Z,4.1
2018-02-25T01:02:37.258Z,4.1
2018-02-25T01:03:35.019Z,4.4
2018-02-25T01:04:35.123Z,4.4
2018-02-25T01:05:34.801Z,4.4
2018-02-25T01:06:35.051Z,4.4
2018-02-25T01:07:34.870Z,4.4
2018-02-25T01:08:43.655Z,1.9
2018-02-25T01:09:35.011Z,1.9
2018-02-25T01:10:35.273Z,1.9
2018-02-25T01:12:34.868Z,4.7
2018-02-25T01:13:37.403Z,7.2
2018-02-25T01:14:40.570Z,7.2
2018-02-25T01:15:36.393Z,7.2
2018-02-25T01:16:34.896Z,5.8
2018-02-25T01:17:34.889Z,5.8
2018-02-25T01:18:35.060Z,5.8
2018-02-25T01:19:34.847Z,5.8
2018-02-25T01:20:34.843Z,5.8
2018-02-25T01:21:34.859Z,5.8
2018-02-25T01:22:34.861Z,5.8
2018-02-25T01:23:34.843Z,5.8
2018-02-25T01:24:34.867Z,1.6
2018-02-25T01:25:34.870Z,1.6
2018-02-25T01:26:34.852Z,4.7
2018-02-25T01:27:34.933Z,4.7
2018-02-25T01:28:35.102Z,4.7
2018-02-25T01:29:35.133Z,4.7
2018-02-25T01:30:34.879Z,4.7
2018-02-25T01:31:34.817Z,5.0
2018-02-25T01:33:35.125Z,5.0
2018-02-25T01:34:34.838Z,3.0
2018-02-25T01:35:35.108Z,3.0
2018-02-25T01:36:34.845Z,3.8
2018-02-25T01:37:34.867Z,3.8
2018-02-25T01:38:34.865Z,3.8
2018-02-25T01:39:35.313Z,3.6
2018-02-25T01:40:35.246Z,3.6
2018-02-25T01:41:34.896Z,5.0
2018-02-25T01:42:34.870Z,5.0
2018-02-25T01:43:35.162Z,5.0
2018-02-25T01:44:34.889Z,4.7
2018-02-25T01:45:35.158Z,4.7
2018-02-25T01:46:34.838Z,4.1
2018-02-25T01:47:34.947Z,4.1
2018-02-25T01:48:34.872Z,4.1
2018-02-25T01:49:34.936Z,5.8
2018-02-25T01:50:34.864Z,5.8
2018-02-25T01:51:35.137Z,5.8
2018-02-25T01:52:34.897Z,5.5
2018-02-25T01:53:34.878Z,5.5
2018-02-25T01:54:35.153Z,5.5
2018-02-25T01:55:35.160Z,5.5
2018-02-25T01:56:34.943Z,2.5
2018-02-25T01:57:34.890Z,4.4
2018-02-25T01:58:34.883Z,4.4
2018-02-25T01:59:34.924Z,4.7
2018-02-25T02:01:34.965Z,4.7
2018-02-25T02:02:34.903Z,4.7
2018-02-25T02:03:34.932Z,4.7
2018-02-25T02:04:35.192Z,3.3
2018-02-25T02:05:34.877Z,3.3
2018-02-25T02:06:34.985Z,3.3
2018-02-25T02:07:34.915Z,3.8
2018-02-25T02:08:34.953Z,3.8
2018-02-25T02:09:34.954Z,7.5
2018-02-25T02:10:34.902Z,7.5
2018-02-25T02:11:34.898Z,7.5
2018-02-25T02:12:34.961Z,3.3
2018-02-25T02:13:37.122Z,3.3
2018-02-25T02:14:34.958Z,5.0
2018-02-25T02:15:34.987Z,5.0
2018-02-25T02:16:35.141Z,5.0
2018-02-25T02:17:36.441Z,3.8
2018-02-25T02:18:34.963Z,3.8
2018-02-25T02:19:34.947Z,3.8
2018-02-25T02:20:34.935Z,5.0
2018-02-25T02:21:34.945Z,5.0
2018-02-25T02:22:34.911Z,6.6
2018-02-25T02:23:34.990Z,6.6
2018-02-25T02:24:34.979Z,6.6
2018-02-25T02:25:34.963Z,4.1
2018-02-25T02:26:34.960Z,4.1
2018-02-25T02:27:34.967Z,6.1
2018-02-25T02:28:35.329Z,6.1
2018-02-25T02:31:35.037Z,5.2
2018-02-25T02:32:35.085Z,3.3
2018-02-25T02:33:35.013Z,3.3
2018-02-25T02:34:35.072Z,3.3
2018-02-25T02:35:35.026Z,3.3
2018-02-25T02:36:35.029Z,3.3
2018-02-25T02:37:35.253Z,3.6
2018-02-25T02:38:34.994Z,3.6
2018-02-25T02:39:35.008Z,3.6
2018-02-25T02:40:34.990Z,5.2
2018-02-25T02:41:34.940Z,5.2
2018-02-25T02:42:35.249Z,5.2
2018-02-25T02:43:35.212Z,5.2
2018-02-25T02:44:35.023Z,5.2
2018-02-25T02:45:35.217Z,3.3
2018-02-25T02:46:34.966Z,3.3
2018-02-25T02:47:35.240Z,3.3
2018-02-25T02:48:34.976Z,3.3
2018-02-25T02:49:35.028Z,3.3
2018-02-25T02:50:34.991Z,5.8
2018-02-25T02:51:35.209Z,5.8
2018-02-25T02:52:34.974Z,5.8
2018-02-25T02:53:35.277Z,5.2
2018-02-25T02:55:35.296Z,4.7
2018-02-25T02:56:35.017Z,4.7
2018-02-25T02:57:34.995Z,4.7
2018-02-25T02:58:34.989Z,4.7
2018-02-25T02:59:34.997Z,4.7
2018-02-25T03:00:35.087Z,3.3
2018-02-25T03:01:35.243Z,3.3
2018-02-25T03:02:34.996Z,3.3
2018-02-25T03:03:34.971Z,3.3
2018-02-25T03:06:35.013Z,3.6
2018-02-25T03:07:35.003Z,3.6
2018-02-25T03:08:34.969Z,4.4
2018-02-25T03:09:35.276Z,4.4
2018-02-25T03:10:34.993Z,5.8
2018-02-25T03:11:35.047Z,5.8
2018-02-25T03:12:34.986Z,5.8
2018-02-25T03:13:35.041Z,5.5
2018-02-25T03:14:35.010Z,5.5
2018-02-25T03:15:35.311Z,6.9
2018-02-25T03:16:35.041Z,6.9
2018-02-25T03:17:35.069Z,6.9
2018-02-25T03:18:35.027Z,4.7
2018-02-25T03:19:35.013Z,4.7
2018-02-25T03:20:35.244Z,4.7
2018-02-25T03:21:35.010Z,4.7
2018-02-25T03:22:35.067Z,4.7
2018-02-25T03:23:35.035Z,4.7
2018-02-25T03:24:35.042Z,4.7
2018-02-25T03:25:35.037Z,4.7
2018-02-25T03:26:35.070Z,2.7
2018-02-25T03:27:35.074Z,2.7
2018-02-25T03:28:35.317Z,2.7
2018-02-25T03:29:35.089Z,2.7
2018-02-25T03:31:35.100Z,2.2
2018-02-25T03:32:35.121Z,2.2
2018-02-25T03:34:35.053Z,5.0
2018-02-25T03:35:35.062Z,5.0
2018-02-25T03:36:35.053Z,2.2
2018-02-25T03:37:35.042Z,2.2
2018-02-25T03:39:35.053Z,3.8
2018-02-25T03:40:35.065Z,3.8
2018-02-25T03:41:35.328Z,5.0
2018-02-25T03:42:35.078Z,5.0
2018-02-25T03:43:35.103Z,5.5
2018-02-25T03:44:35.082Z,5.5
2018-02-25T03:45:35.036Z,5.5
2018-02-25T03:46:35.081Z,6.1
2018-02-25T03:47:35.053Z,6.1
2018-02-25T03:48:35.088Z,4.4
2018-02-25T03:49:35.070Z,4.4
2018-02-25T03:50:35.070Z,4.4
2018-02-25T03:51:35.068Z,3.3
2018-02-25T03:52:35.114Z,3.3
2018-02-25T03:53:35.097Z,3.3
2018-02-25T03:54:35.100Z,5.0
2018-02-25T03:55:35.085Z,5.0
2018-02-25T03:56:35.353Z,5.0
2018-02-25T03:58:35.070Z,5.0
2018-02-25T03:59:35.368Z,5.2
2018-02-25T04:00:35.133Z,5.2
2018-02-25T04:01:35.080Z,4.4
2018-02-25T04:02:35.077Z,4.4
2018-02-25T04:03:35.104Z,4.4
2018-02-25T04:04:35.063Z,4.4
2018-02-25T04:05:35.111Z,4.4
2018-02-25T04:07:35.408Z,3.3
2018-02-25T04:08:35.110Z,3.3
2018-02-25T04:09:35.087Z,20.8
2018-02-25T04:10:35.128Z,20.8
2018-02-25T04:11:35.151Z,20.0
2018-02-25T04:13:35.115Z,20.0
2018-02-25T04:14:35.129Z,5.0
2018-02-25T04:15:35.125Z,5.0
2018-02-25T04:16:35.165Z,3.6
2018-02-25T04:17:35.128Z,3.6
2018-02-25T04:18:35.122Z,3.6
2018-02-25T04:19:35.129Z,2.7
2018-02-25T04:20:35.389Z,2.7
2018-02-25T04:21:35.142Z,2.7
2018-02-25T04:22:35.450Z,23.6
2018-02-25T04:23:35.102Z,23.6
2018-02-25T04:24:35.176Z,2.5
2018-02-25T04:25:35.405Z,2.5
2018-02-25T04:26:35.174Z,2.5
2018-02-25T04:27:35.182Z,5.2
2018-02-25T04:28:35.130Z,5.2
2018-02-25T04:29:35.217Z,4.4
2018-02-25T04:30:35.129Z,4.4
2018-02-25T04:31:35.505Z,4.4
2018-02-25T04:32:35.280Z,4.4
2018-02-25T04:33:35.432Z,4.4
2018-02-25T04:34:35.186Z,2.7
2018-02-25T04:35:35.408Z,2.7
2018-02-25T04:36:35.160Z,2.7
2018-02-25T04:37:35.233Z,3.6
2018-02-25T04:38:35.172Z,3.6
2018-02-25T04:39:35.156Z,4.7
2018-02-25T04:40:35.209Z,4.7
2018-02-25T04:41:35.176Z,4.7
2018-02-25T04:42:35.479Z,3.0
2018-02-25T04:43:35.193Z,3.0
2018-02-25T04:44:35.508Z,3.0
2018-02-25T04:45:35.434Z,3.0
2018-02-25T04:46:35.495Z,3.0
2018-02-25T04:47:35.334Z,6.3
2018-02-25T04:48:35.249Z,6.3
2018-02-25T04:49:35.192Z,3.0
2018-02-25T04:50:35.177Z,3.0
2018-02-25T04:51:35.198Z,3.0
2018-02-25T04:52:35.432Z,6.6
2018-02-25T04:53:35.236Z,6.6
2018-02-25T04:54:35.431Z,6.6
2018-02-25T04:55:35.190Z,4.7
2018-02-25T04:56:35.192Z,4.7
2018-02-25T04:57:35.172Z,3.3
2018-02-25T04:58:35.206Z,3.3
2018-02-25T04:59:35.239Z,3.3
2018-02-25T05:00:35.194Z,6.6
2018-02-25T05:01:35.200Z,6.6
2018-02-25T05:02:35.476Z,4.7
2018-02-25T05:03:35.190Z,4.7
2018-02-25T05:04:35.254Z,4.7
2018-02-25T05:05:35.249Z,5.0
2018-02-25T05:06:35.233Z,5.0
2018-02-25T05:07:35.261Z,3.3
2018-02-25T05:08:35.526Z,3.3
2018-02-25T05:09:35.205Z,3.3
2018-02-25T05:10:35.582Z,2.2
2018-02-25T05:11:35.457Z,2.2
2018-02-25T05:12:35.463Z,1.3
2018-02-25T05:13:35.534Z,1.3
2018-02-25T05:14:35.266Z,1.3
2018-02-25T05:15:35.222Z,3.6
2018-02-25T05:16:35.257Z,3.6
2018-02-25T05:17:35.271Z,3.6
2018-02-25T05:18:35.256Z,3.6
2018-02-25T05:19:35.237Z,3.6
2018-02-25T05:20:35.249Z,3.0
2018-02-25T05:21:35.355Z,3.0
2018-02-25T05:22:35.254Z,3.0
2018-02-25T05:23:35.272Z,4.4
2018-02-25T05:24:35.243Z,4.4
2018-02-25T05:25:35.220Z,4.4
2018-02-25T05:26:35.254Z,4.4
2018-02-25T05:27:35.608Z,4.4
2018-02-25T05:28:35.244Z,5.5
2018-02-25T05:29:35.257Z,5.5
2018-02-25T05:30:35.503Z,4.4
2018-02-25T05:31:35.522Z,4.4
2018-02-25T05:32:35.782Z,4.4
2018-02-25T05:34:44.957Z,5.0
2018-02-25T05:35:45.176Z,6.3
2018-02-25T05:36:44.949Z,6.3
2018-02-25T05:37:44.928Z,6.3
2018-02-25T05:39:44.917Z,3.8
2018-02-25T05:40:44.929Z,4.4
2018-02-25T05:41:44.956Z,4.4
2018-02-25T05:42:44.943Z,4.4
2018-02-25T05:43:45.068Z,5.8
2018-02-25T05:44:45.183Z,5.8
2018-02-25T05:45:44.942Z,5.2
2018-02-25T05:46:45.192Z,5.2
2018-02-25T05:47:45.232Z,5.2
2018-02-25T05:48:44.989Z,4.4
2018-02-25T05:49:44.983Z,4.4
2018-02-25T05:50:44.990Z,4.7
2018-02-25T05:51:44.941Z,4.7
2018-02-25T05:52:44.957Z,4.7
2018-02-25T05:53:44.917Z,2.7
2018-02-25T05:54:45.005Z,2.7
2018-02-25T05:55:44.963Z,3.8
2018-02-25T05:56:44.962Z,3.8
2018-02-25T05:57:44.949Z,3.8
2018-02-25T05:58:44.989Z,3.6
2018-02-25T05:59:44.976Z,3.6
2018-02-25T06:00:45.000Z,4.1
2018-02-25T06:01:44.976Z,4.1
2018-02-25T06:02:45.296Z,4.1
2018-02-25T06:03:45.033Z,20.5
2018-02-25T06:04:45.071Z,20.5
2018-02-25T06:05:45.361Z,20.5
2018-02-25T06:06:45.001Z,20.5
2018-02-25T06:07:47.013Z,20.5
2018-02-25T06:08:45.824Z,3.6
2018-02-25T06:09:45.364Z,3.6
2018-02-25T06:10:46.191Z,3.6
2018-02-25T06:12:03.052Z,6.3
2018-02-25T06:12:45.286Z,6.3
2018-02-25T06:13:45.012Z,24.7
2018-02-25T06:14:45.336Z,24.7
2018-02-25T06:15:45.896Z,24.7
2018-02-25T06:16:45.052Z,3.3
2018-02-25T06:17:44.985Z,3.3
2018-02-25T06:18:45.046Z,4.1
2018-02-25T06:19:45.020Z,4.1
2018-02-25T06:20:45.054Z,4.1
2018-02-25T06:21:45.038Z,3.8
2018-02-25T06:22:45.056Z,3.8
2018-02-25T06:23:45.026Z,2.2
2018-02-25T06:24:45.003Z,2.2
2018-02-25T06:25:45.019Z,2.2
2018-02-25T06:26:45.047Z,3.6
2018-02-25T06:27:45.370Z,3.6
2018-02-25T06:28:45.012Z,4.4
2018-02-25T06:29:45.043Z,4.4
2018-02-25T06:30:45.269Z,4.4
2018-02-25T06:31:45.313Z,6.3
2018-02-25T06:32:45.069Z,6.3
2018-02-25T06:33:45.310Z,6.3
2018-02-25T06:34:45.013Z,3.8
2018-02-25T06:35:45.026Z,3.8
2018-02-25T06:36:45.325Z,4.7
2018-02-25T06:37:45.038Z,4.7
2018-02-25T06:38:45.081Z,4.7
2018-02-25T06:39:45.077Z,14.4
2018-02-25T06:40:45.295Z,14.4
2018-02-25T06:41:45.095Z,14.4
2018-02-25T06:42:45.150Z,14.4
2018-02-25T06:43:45.109Z,14.4
2018-02-25T06:44:45.061Z,1.1
2018-02-25T06:45:45.060Z,1.1
2018-02-25T06:46:45.090Z,1.1
2018-02-25T06:47:45.076Z,1.1
2018-02-25T06:48:45.102Z,1.1
2018-02-25T06:49:45.139Z,11.3
2018-02-25T06:50:45.086Z,11.3
2018-02-25T06:51:45.369Z,1.3
2018-02-25T06:52:45.107Z,1.3
2018-02-25T06:53:45.133Z,1.3
2018-02-25T06:54:45.121Z,17.7
2018-02-25T06:55:45.124Z,17.7
2018-02-25T06:56:45.085Z,1.9
2018-02-25T06:58:45.129Z,1.9
2018-02-25T06:59:45.390Z,4.7
2018-02-25T07:00:45.096Z,4.7
2018-02-25T07:01:45.377Z,4.1
2018-02-25T07:02:45.085Z,4.1
2018-02-25T07:03:45.093Z,4.1
2018-02-25T07:04:45.114Z,4.1
2018-02-25T07:05:45.132Z,4.1
2018-02-25T07:06:45.130Z,4.1
2018-02-25T07:07:45.124Z,4.7
2018-02-25T07:08:45.095Z,4.7
2018-02-25T07:09:45.176Z,4.1
2018-02-25T07:10:45.161Z,4.1
2018-02-25T07:11:45.117Z,4.1
2018-02-25T07:12:45.437Z,6.6
2018-02-25T07:13:45.107Z,6.6
2018-02-25T07:14:45.425Z,6.6
2018-02-25T07:15:45.498Z,6.6
2018-02-25T07:16:46.020Z,6.6
2018-02-25T07:17:45.414Z,9.1
2018-02-25T07:18:45.173Z,9.1
2018-02-25T07:21:45.195Z,4.4
2018-02-25T07:23:45.416Z,4.4
2018-02-25T07:24:45.403Z,6.9
2018-02-25T07:25:45.177Z,6.9
2018-02-25T07:26:45.258Z,6.9
2018-02-25T07:27:45.135Z,6.9
2018-02-25T07:28:45.425Z,6.9
2018-02-25T07:29:45.094Z,4.4
2018-02-25T07:30:45.123Z,4.4
2018-02-25T07:31:45.214Z,4.4
2018-02-25T07:32:45.250Z,4.7
2018-02-25T07:33:45.177Z,4.7
2018-02-25T07:34:45.490Z,4.7
2018-02-25T07:35:45.173Z,35.0
2018-02-25T07:36:45.237Z,35.0
2018-02-25T07:37:45.258Z,7.7
2018-02-25T07:38:45.154Z,7.7
2018-02-25T07:39:45.151Z,7.7
2018-02-25T07:40:45.202Z,3.8
2018-02-25T07:42:45.257Z,8.8
2018-02-25T07:43:45.191Z,8.8
2018-02-25T07:44:45.218Z,8.8
2018-02-25T07:45:45.182Z,5.5
2018-02-25T07:46:45.509Z,5.5
2018-02-25T07:47:45.198Z,7.2
2018-02-25T07:48:45.251Z,7.2
2018-02-25T07:49:45.465Z,7.2
2018-02-25T07:50:45.161Z,5.8
2018-02-25T07:52:45.178Z,5.5
2018-02-25T07:53:45.254Z,5.5
2018-02-25T07:54:45.186Z,5.5
2018-02-25T07:55:45.268Z,6.9
2018-02-25T07:56:45.255Z,6.9
2018-02-25T07:57:45.249Z,8.3
2018-02-25T07:58:45.232Z,8.3
2018-02-25T07:59:45.279Z,8.3
2018-02-25T08:00:45.305Z,9.1
2018-02-25T08:01:45.225Z,9.1
2018-02-25T08:02:47.112Z,8.3
2018-02-25T08:04:45.262Z,8.3
2018-02-25T08:06:45.488Z,6.1
2018-02-25T08:07:45.515Z,6.1
2018-02-25T08:08:45.309Z,6.1
2018-02-25T08:09:45.291Z,6.1
2018-02-25T08:10:45.266Z,20.0
2018-02-25T08:11:45.316Z,20.0
2018-02-25T08:12:45.219Z,20.0
2018-02-25T08:13:45.223Z,5.5
2018-02-25T08:14:45.255Z,5.5
2018-02-25T08:15:45.318Z,8.3
2018-02-25T08:16:45.295Z,8.3
2018-02-25T08:17:46.171Z,8.3
2018-02-25T08:18:45.524Z,6.3
2018-02-25T08:19:45.244Z,6.3
2018-02-25T08:20:45.227Z,2.5
2018-02-25T08:22:45.505Z,2.5
2018-02-25T08:23:45.279Z,6.1
2018-02-25T08:24:45.242Z,6.1
2018-02-25T08:25:45.352Z,6.6
2018-02-25T08:27:45.542Z,6.6
2018-02-25T08:28:45.577Z,8.6
2018-02-25T08:29:45.314Z,8.6
2018-02-25T08:30:45.546Z,25.8
2018-02-25T08:31:45.324Z,25.8
2018-02-25T08:32:45.294Z,25.8
2018-02-25T08:33:45.390Z,5.8
2018-02-25T08:34:45.297Z,5.8
2018-02-25T08:35:45.560Z,5.8
2018-02-25T08:36:45.335Z,30.5
2018-02-25T08:37:45.324Z,30.5
2018-02-25T08:38:45.280Z,7.5
2018-02-25T08:39:45.300Z,7.5
2018-02-25T08:40:45.322Z,7.5
2018-02-25T08:41:45.314Z,5.2
2018-02-25T08:43:45.297Z,43.3
2018-02-25T08:44:45.331Z,43.3
2018-02-25T08:45:45.292Z,43.3
2018-02-25T08:47:45.372Z,8.6
2018-02-25T08:48:45.721Z,8.6
2018-02-25T08:49:45.596Z,8.6
2018-02-25T08:50:45.337Z,8.6
2018-02-25T08:51:45.314Z,6.3
2018-02-25T08:52:45.639Z,6.3
2018-02-25T08:53:45.370Z,4.7
2018-02-25T08:54:45.362Z,4.7
2018-02-25T08:55:45.293Z,4.7
2018-02-25T08:56:45.340Z,30.5
2018-02-25T08:57:45.382Z,30.5
2018-02-25T08:58:45.609Z,5.2
2018-02-25T09:00:45.331Z,5.2
2018-02-25T09:01:45.376Z,7.7
2018-02-25T09:02:45.337Z,7.7
2018-02-25T09:03:45.413Z,7.7
2018-02-25T09:04:45.351Z,7.7
2018-02-25T09:05:45.364Z,7.7
2018-02-25T09:06:45.656Z,6.3
2018-02-25T09:07:45.389Z,6.3
2018-02-25T09:08:45.423Z,6.3
2018-02-25T09:09:45.389Z,6.1
2018-02-25T09:10:45.407Z,6.1
2018-02-25T09:11:45.384Z,5.8
2018-02-25T09:12:45.388Z,5.8
2018-02-25T09:14:45.420Z,6.1
2018-02-25T09:15:45.382Z,6.1
2018-02-25T09:16:45.377Z,32.2
2018-02-25T09:17:45.400Z,32.2
2018-02-25T09:18:46.292Z,32.2
2018-02-25T09:19:45.718Z,5.0
2018-02-25T09:20:45.655Z,5.0
2018-02-25T09:21:45.436Z,4.7
2018-02-25T09:22:45.406Z,4.7
2018-02-25T09:23:45.373Z,4.7
2018-02-25T09:24:45.370Z,6.3
2018-02-25T09:25:45.497Z,6.3
2018-02-25T09:26:45.377Z,6.1
2018-02-25T09:27:45.408Z,6.1
2018-02-25T09:28:45.349Z,6.1
2018-02-25T09:29:45.756Z,6.1
2018-02-25T09:30:45.643Z,6.1
2018-02-25T09:31:45.806Z,7.7
2018-02-25T09:32:45.440Z,7.7
2018-02-25T09:33:45.478Z,7.7
2018-02-25T09:34:45.477Z,4.4
2018-02-25T09:35:45.605Z,4.4
2018-02-25T09:36:45.407Z,4.4
2018-02-25T09:37:45.660Z,8.0
2018-02-25T09:38:45.446Z,8.0
2018-02-25T09:40:45.480Z,8.6
2018-02-25T09:41:45.365Z,8.6
2018-02-25T09:42:45.414Z,5.8
2018-02-25T09:43:45.351Z,5.8
2018-02-25T09:44:45.397Z,6.6
2018-02-25T09:45:45.635Z,6.6
2018-02-25T09:46:45.451Z,6.6
2018-02-25T09:47:45.445Z,6.6
2018-02-25T09:48:45.390Z,6.6
2018-02-25T09:49:45.669Z,6.1
2018-02-25T09:50:45.427Z,6.1
2018-02-25T09:51:45.459Z,6.1
2018-02-25T09:52:45.469Z,5.2
2018-02-25T09:53:45.456Z,5.2
2018-02-25T09:54:45.495Z,7.7
2018-02-25T09:55:45.463Z,7.7
2018-02-25T09:56:45.458Z,7.7
2018-02-25T09:57:45.479Z,3.0
2018-02-25T09:58:45.457Z,3.0
2018-02-25T09:59:45.732Z,7.7
2018-02-25T10:00:45.423Z,7.7
2018-02-25T10:01:45.598Z,7.7
2018-02-25T10:02:45.688Z,5.2
2018-02-25T10:03:45.465Z,5.2
2018-02-25T10:04:45.479Z,25.8
2018-02-25T10:06:45.430Z,25.8
2018-02-25T10:07:45.756Z,6.3
2018-02-25T10:08:45.466Z,6.3
2018-02-25T10:09:45.460Z,6.3
2018-02-25T10:10:45.483Z,6.3
2018-02-25T10:11:45.446Z,6.3
2018-02-25T10:12:45.726Z,4.1
2018-02-25T10:13:45.497Z,4.1
2018-02-25T10:14:45.530Z,4.1
2018-02-25T10:15:45.437Z,6.1
2018-02-25T10:16:45.756Z,6.1
2018-02-25T10:17:45.475Z,7.7
2018-02-25T10:18:45.463Z,7.7
2018-02-25T10:19:46.322Z,7.7
2018-02-25T10:20:45.728Z,6.3
2018-02-25T10:21:45.474Z,6.3
2018-02-25T10:22:46.001Z,5.8
2018-02-25T10:23:45.534Z,5.8
2018-02-25T10:24:45.596Z,5.8
2018-02-25T10:25:45.471Z,8.0
2018-02-25T10:28:45.488Z,5.0
2018-02-25T10:29:45.560Z,5.0
2018-02-25T10:32:45.666Z,4.1
2018-02-25T10:33:45.512Z,4.1
2018-02-25T10:34:45.758Z,4.1
2018-02-25T10:35:45.500Z,4.7
2018-02-25T10:36:45.730Z,4.7
2018-02-25T10:37:45.755Z,4.7
2018-02-25T10:38:45.542Z,15.8
2018-02-25T10:39:45.852Z,15.8
2018-02-25T10:40:45.589Z,6.3
2018-02-25T10:41:45.501Z,6.3
2018-02-25T10:42:45.528Z,6.3
2018-02-25T10:43:45.796Z,6.6
2018-02-25T10:44:45.511Z,6.6
2018-02-25T10:45:45.814Z,5.8
2018-02-25T10:46:45.757Z,5.8
2018-02-25T10:47:45.759Z,5.8
2018-02-25T10:48:45.733Z,8.3
2018-02-25T10:49:45.785Z,8.3
2018-02-25T10:51:45.483Z,8.3
2018-02-25T10:52:45.543Z,8.3
2018-02-25T10:53:45.812Z,23.8
2018-02-25T10:54:45.588Z,23.8
2018-02-25T10:55:45.566Z,23.8
2018-02-25T10:56:45.774Z,23.8
2018-02-25T10:57:45.551Z,5.0
2018-02-25T10:58:45.536Z,6.6
2018-02-25T10:59:45.572Z,6.6
2018-02-25T11:00:45.586Z,5.2
2018-02-25T11:01:45.614Z,5.2
2018-02-25T11:02:45.636Z,5.2
2018-02-25T11:03:45.550Z,7.7
2018-02-25T11:04:45.613Z,7.7
2018-02-25T11:05:45.767Z,6.6
2018-02-25T11:06:45.582Z,6.6
2018-02-25T11:08:45.707Z,9.7
2018-02-25T11:09:46.263Z,9.7
2018-02-25T11:10:45.613Z,9.7
2018-02-25T11:11:45.613Z,4.7
2018-02-25T11:12:45.586Z,4.7
2018-02-25T11:13:45.662Z,5.2
2018-02-25T11:14:45.719Z,5.2
2018-02-25T11:15:45.630Z,5.2
2018-02-25T11:16:45.675Z,31.3
2018-02-25T11:17:47.113Z,31.3
2018-02-25T11:18:47.409Z,4.7
2018-02-25T11:19:48.961Z,4.7
2018-02-25T11:20:46.303Z,4.7
2018-02-25T11:21:46.054Z,7.5
2018-02-25T11:22:45.772Z,7.5
2018-02-25T11:23:45.923Z,6.9
2018-02-25T11:24:45.619Z,6.9
2018-02-25T11:25:45.733Z,6.9
2018-02-25T11:26:45.658Z,5.2
2018-02-25T11:27:45.676Z,5.2
2018-02-25T11:29:45.929Z,6.6
2018-02-25T11:30:45.645Z,6.6
2018-02-25T11:31:45.617Z,6.6
2018-02-25T11:32:45.628Z,6.6
2018-02-25T11:33:45.911Z,6.9
2018-02-25T11:34:45.640Z,6.9
2018-02-25T11:35:45.636Z,6.9
2018-02-25T11:36:45.602Z,8.0
2018-02-25T11:37:45.904Z,8.0
2018-02-25T11:38:45.715Z,8.0
2018-02-25T11:39:45.642Z,8.0
2018-02-25T11:40:45.656Z,8.0
2018-02-25T11:41:45.665Z,8.0
2018-02-25T11:42:45.901Z,8.0
2018-02-25T11:43:45.647Z,8.0
2018-02-25T11:44:45.760Z,5.2
2018-02-25T11:45:45.931Z,5.2
2018-02-25T11:46:45.625Z,8.0
2018-02-25T11:47:45.654Z,8.0
2018-02-25T11:48:45.633Z,8.0
2018-02-25T11:49:45.944Z,5.8
2018-02-25T11:50:45.649Z,5.8
2018-02-25T11:51:46.077Z,6.9
2018-02-25T11:52:45.884Z,6.9
2018-02-25T11:53:45.766Z,6.9
2018-02-25T11:54:45.917Z,6.6
2018-02-25T11:55:45.918Z,6.6
2018-02-25T11:56:45.664Z,6.1
2018-02-25T11:57:45.953Z,6.1
2018-02-25T11:59:45.683Z,6.3
2018-02-25T12:00:45.711Z,6.3
2018-02-25T12:01:45.708Z,5.2
2018-02-25T12:04:45.655Z,7.2
2018-02-25T12:05:45.766Z,7.2
2018-02-25T12:06:45.945Z,6.3
2018-02-25T12:07:45.962Z,6.3
2018-02-25T12:08:45.925Z,6.3
2018-02-25T12:10:45.963Z,32.5
2018-02-25T12:11:45.732Z,32.5
2018-02-25T12:12:45.689Z,32.5
2018-02-25T12:13:45.728Z,32.5
2018-02-25T12:14:45.711Z,4.4
2018-02-25T12:15:45.759Z,4.4
2018-02-25T12:16:45.678Z,4.4
2018-02-25T12:17:45.735Z,6.3
2018-02-25T12:18:45.704Z,6.3
2018-02-25T12:19:46.411Z,5.5
2018-02-25T12:20:45.655Z,5.5
2018-02-25T12:21:46.696Z,5.5
2018-02-25T12:22:45.703Z,5.5
2018-02-25T12:23:45.733Z,5.5
2018-02-25T12:24:45.689Z,5.0
2018-02-25T12:25:46.083Z,5.0
2018-02-25T12:26:45.792Z,5.0
2018-02-25T12:27:45.992Z,5.5
2018-02-25T12:28:45.684Z,5.5
2018-02-25T12:29:45.756Z,7.7
2018-02-25T12:30:45.728Z,7.7
2018-02-25T12:31:45.820Z,7.7
2018-02-25T12:32:45.701Z,6.1
2018-02-25T12:33:45.778Z,6.1
2018-02-25T12:34:45.750Z,7.5
2018-02-25T12:36:45.754Z,7.5
2018-02-25T12:37:45.879Z,7.2
2018-02-25T12:39:45.790Z,7.2
2018-02-25T12:40:46.023Z,5.0
2018-02-25T12:41:45.797Z,5.0
2018-02-25T12:42:45.719Z,3.8
2018-02-25T12:43:46.020Z,3.8
2018-02-25T12:44:45.712Z,3.8
2018-02-25T12:45:45.785Z,5.2
2018-02-25T12:46:45.743Z,5.2
2018-02-25T12:47:45.798Z,8.3
2018-02-25T12:49:46.053Z,8.3
2018-02-25T12:50:45.771Z,5.8
2018-02-25T12:51:46.041Z,5.8
2018-02-25T12:52:45.812Z,5.8
2018-02-25T12:53:45.737Z,5.8
2018-02-25T12:54:45.723Z,5.8
2018-02-25T12:56:45.752Z,8.3
2018-02-25T12:57:45.801Z,8.0
2018-02-25T12:59:45.806Z,8.0
2018-02-25T13:00:45.787Z,6.6
2018-02-25T13:01:46.104Z,6.6
2018-02-25T13:02:45.792Z,7.5
2018-02-25T13:03:45.870Z,7.5
2018-02-25T13:05:46.048Z,5.2
2018-02-25T13:06:46.656Z,5.2
2018-02-25T13:07:45.809Z,5.5
2018-02-25T13:10:45.771Z,7.2
2018-02-25T13:11:45.866Z,7.2
2018-02-25T13:12:45.722Z,7.2
2018-02-25T13:13:46.096Z,4.1
2018-02-25T13:14:45.801Z,4.1
2018-02-25T13:15:45.887Z,7.2
2018-02-25T13:16:45.761Z,7.2
2018-02-25T13:17:46.086Z,7.2
2018-02-25T13:18:45.779Z,5.5
2018-02-25T13:19:45.858Z,5.5
2018-02-25T13:20:45.816Z,6.1
2018-02-25T13:21:45.821Z,6.1
2018-02-25T13:22:46.572Z,6.1
2018-02-25T13:23:45.798Z,6.9
2018-02-25T13:24:45.814Z,6.9
2018-02-25T13:25:45.771Z,5.8
2018-02-25T13:26:45.778Z,5.8
2018-02-25T13:27:45.784Z,5.8
2018-02-25T13:28:45.785Z,6.6
2018-02-25T13:29:45.896Z,6.6
2018-02-25T13:30:45.815Z,5.2
2018-02-25T13:31:45.835Z,5.2
2018-02-25T13:32:45.888Z,5.2
2018-02-25T13:33:45.793Z,5.2
2018-02-25T13:34:46.129Z,5.2
2018-02-25T13:35:45.829Z,1.9
2018-02-25T13:36:46.053Z,1.9
2018-02-25T13:37:45.860Z,1.9
2018-02-25T13:38:45.835Z,5.8
2018-02-25T13:39:45.834Z,5.8
2018-02-25T13:41:45.818Z,7.2
2018-02-25T13:42:46.099Z,7.2
2018-02-25T13:44:45.914Z,5.2
2018-02-25T13:45:45.847Z,5.2
2018-02-25T13:46:45.883Z,5.5
2018-02-25T13:47:45.889Z,5.5
2018-02-25T13:48:46.094Z,7.2
2018-02-25T13:49:45.875Z,7.2
2018-02-25T13:50:45.865Z,7.2
2018-02-25T13:51:45.876Z,9.4
2018-02-25T13:52:46.144Z,9.4
2018-02-25T13:53:45.877Z,9.4
2018-02-25T13:54:46.102Z,9.4
2018-02-25T13:55:45.874Z,9.4
2018-02-25T13:56:45.888Z,3.0
2018-02-25T13:57:45.834Z,3.0
2018-02-25T13:58:45.864Z,5.2
2018-02-25T13:59:45.858Z,5.2
2018-02-25T14:00:45.900Z,5.2
2018-02-25T14:01:45.892Z,5.8
2018-02-25T14:02:46.180Z,5.8
2018-02-25T14:03:45.897Z,7.5
2018-02-25T14:05:45.857Z,7.5
2018-02-25T14:06:46.191Z,7.5
2018-02-25T14:07:45.956Z,7.5
2018-02-25T14:08:45.981Z,5.8
2018-02-25T14:09:46.405Z,5.8
2018-02-25T14:10:45.881Z,5.8
2018-02-25T14:11:45.915Z,6.6
2018-02-25T14:12:45.920Z,6.6
2018-02-25T14:13:45.947Z,6.6
2018-02-25T14:14:45.943Z,6.6
2018-02-25T14:15:45.916Z,6.6
2018-02-25T14:16:46.169Z,5.5
2018-02-25T14:17:46.560Z,5.5
2018-02-25T14:18:45.924Z,5.5
2018-02-25T14:19:46.163Z,7.2
2018-02-25T14:20:45.918Z,7.2
2018-02-25T14:21:45.914Z,8.6
2018-02-25T14:22:45.914Z,8.6
2018-02-25T14:23:46.484Z,8.6
2018-02-25T14:24:46.121Z,32.7
2018-02-25T14:25:45.992Z,32.7
2018-02-25T14:26:45.939Z,6.3
2018-02-25T14:27:46.336Z,6.3
2018-02-25T14:28:45.900Z,6.3
2018-02-25T14:29:46.246Z,7.5
2018-02-25T14:30:45.894Z,7.5
2018-02-25T14:31:45.917Z,8.3
2018-02-25T14:32:45.953Z,8.3
2018-02-25T14:33:45.933Z,8.3
2018-02-25T14:34:45.911Z,8.0
2018-02-25T14:35:45.948Z,8.0
2018-02-25T14:36:45.960Z,7.2
2018-02-25T14:37:45.934Z,7.2
2018-02-25T14:38:45.937Z,7.2
2018-02-25T14:40:45.973Z,7.5